aviador You're here:

YCCY Decoded Metar

in
Report Time2018-06-21 21:00:00
UTC Time2018-06-21 21:48:28
Flight Rules unknown UNKNOWN
Wind190° at 08 kt
W.Decomp.*RWY 24: 5.1 kt HW 6.1 kt LCW
RWY 12: 2.7 kt HW 7.5 kt RCW
W.Rank190° ranks 1
Current wind is below 190° avg. (8.6)
VisibilityN/A
Phenomena:N/A
Clouds:N/A
Expected CloudBase > 4,000 ft AGL from Temp-Dew spread
CeilingNone
Temp09°C
Dew Point-1°C (50% RH)
AAT4.0°C
QNH1019 hPa
Raw Report
METAR YCCY 212100Z AUTO 19008KT //// // ////// 09/M01 Q1019=

Extra information for YCCY:More info

Social comments